Time;durP1;ratioP1;P1;durP2;ratioP2;P2;SDS_P1;SDS_P2;PMS_P1;PMS_P2;Temp;Humidity;BMP_temperature;BMP_pressure;BME280_temperature;BME280_humidity;BME280_pressure;Samples;Min_cycle;Max_cycle;Signal;HPM_P1;HPM_P2
2022/12/02 00:01:07;;;;;;;8.47;7.60;;;;;;;20.20;49.30;97669.75;4982593;28;20214;-92
2022/12/02 00:03:35;;;;;;;7.80;7.00;;;;;;;20.27;49.44;97702.31;5001615;28;20187;-94
2022/12/02 00:06:02;;;;;;;8.33;7.47;;;;;;;19.92;49.60;97629.53;4999326;28;20262;-93
2022/12/02 00:08:29;;;;;;;7.27;6.57;;;;;;;19.32;49.53;97512.53;5012151;28;20175;-93
2022/12/02 00:10:57;;;;;;;8.07;7.27;;;;;;;20.18;49.40;97667.13;5003238;28;20279;-93
2022/12/02 00:13:28;;;;;;;8.07;7.27;;;;;;;19.66;49.33;97580.13;5013759;28;20175;-93
2022/12/02 00:16:02;;;;;;;8.50;7.57;;;;;;;19.72;49.38;97584.59;5015703;28;20251;-94
2022/12/02 00:18:29;;;;;;;8.83;7.93;;;;;;;18.94;49.22;97443.94;5014208;28;20189;-94
2022/12/02 00:20:55;;;;;;;8.40;7.60;;;;;;;19.28;49.38;97496.28;4991481;28;20239;-93
2022/12/02 00:23:22;;;;;;;7.93;7.23;;;;;;;19.26;49.36;97496.97;5015256;28;20183;-92
2022/12/02 00:25:50;;;;;;;8.17;7.37;;;;;;;19.65;49.40;97568.19;4994760;28;20208;-93
2022/12/02 00:28:17;;;;;;;7.93;7.13;;;;;;;20.19;49.63;97660.38;5015875;28;20195;-94
2022/12/02 00:30:44;;;;;;;7.13;6.43;;;;;;;20.24;49.39;97674.13;4996161;28;20222;-93
2022/12/02 00:33:10;;;;;;;8.47;7.37;;;;;;;20.09;49.30;97642.91;5000590;28;20239;-93
2022/12/02 00:35:37;;;;;;;8.10;7.30;;;;;;;19.80;49.37;97593.38;5014006;28;20175;-93
2022/12/02 00:38:04;;;;;;;8.33;7.53;;;;;;;20.05;49.19;97643.63;5016842;28;20184;-92
2022/12/02 00:40:30;;;;;;;7.73;7.00;;;;;;;19.63;49.46;97566.41;5014947;28;20218;-94
2022/12/02 00:46:30;;;;;;;8.47;7.67;;;;;;;19.28;49.66;97509.03;4994285;28;20199;-93
2022/12/02 00:48:32;;;;;;;8.87;8.07;;;;;;;19.33;49.42;97504.09;5010061;28;20191;-93
2022/12/02 00:50:59;;;;;;;7.87;7.17;;;;;;;19.97;49.32;97612.75;5014632;28;20211;-93
2022/12/02 00:53:25;;;;;;;8.30;7.37;;;;;;;19.56;49.31;97546.59;4991515;28;20180;-93
2022/12/02 00:55:52;;;;;;;8.87;7.97;;;;;;;19.77;48.97;97583.94;5006789;28;20199;-93
2022/12/02 00:58:18;;;;;;;8.57;7.77;;;;;;;19.33;49.37;97501.56;5000973;28;20184;-93
2022/12/02 01:00:45;;;;;;;8.33;7.50;;;;;;;20.17;49.34;97642.44;5010790;28;20246;-93
2022/12/02 01:03:12;;;;;;;7.60;6.90;;;;;;;19.23;49.35;97485.00;5018577;28;20188;-93
2022/12/02 01:05:39;;;;;;;8.90;8.00;;;;;;;19.33;49.46;97515.16;5011640;28;20203;-93
2022/12/02 01:08:05;;;;;;;6.90;6.20;;;;;;;19.33;49.15;97519.41;4995624;28;20221;-92
2022/12/02 01:10:32;;;;;;;8.33;7.53;;;;;;;19.78;49.64;97578.03;5013806;28;20208;-94
2022/12/02 01:12:58;;;;;;;7.90;6.97;;;;;;;20.40;49.47;97689.22;5012350;28;20263;-92
2022/12/02 01:15:25;;;;;;;8.27;7.47;;;;;;;19.66;49.23;97553.78;5000451;28;20182;-93
2022/12/02 01:17:52;;;;;;;8.57;7.50;;;;;;;19.71;49.37;97576.06;5012072;28;20184;-92
2022/12/02 01:20:18;;;;;;;7.70;7.00;;;;;;;19.50;49.55;97528.50;5018905;28;20211;-93
2022/12/02 01:22:45;;;;;;;7.80;7.10;;;;;;;19.66;49.26;97567.38;4990136;28;20203;-92
2022/12/02 01:25:11;;;;;;;7.50;6.80;;;;;;;19.64;49.29;97542.66;4995706;28;20183;-93
2022/12/02 01:27:38;;;;;;;8.53;7.63;;;;;;;19.47;49.39;97521.63;5013027;28;20195;-94
2022/12/02 01:30:05;;;;;;;7.73;6.97;;;;;;;19.93;49.53;97621.94;4986902;28;20199;-93
2022/12/02 01:32:32;;;;;;;8.73;7.47;;;;;;;20.56;49.35;97702.59;4993087;28;20189;-93
2022/12/02 01:34:58;;;;;;;8.40;7.50;;;;;;;19.77;49.37;97562.69;4995838;28;20267;-94
2022/12/02 01:37:25;;;;;;;7.40;6.57;;;;;;;19.55;49.45;97535.53;5017787;28;20505;-93
2022/12/02 01:39:52;;;;;;;8.27;7.20;;;;;;;19.75;49.54;97559.22;5011678;28;20207;-92
2022/12/02 01:42:18;;;;;;;8.20;7.40;;;;;;;20.15;49.44;97620.22;5011280;28;20211;-94
2022/12/02 01:44:45;;;;;;;8.03;7.23;;;;;;;19.60;49.42;97526.38;5012227;28;20210;-94
2022/12/02 01:47:11;;;;;;;8.30;7.50;;;;;;;19.89;49.18;97566.56;4995690;28;20194;-93
2022/12/02 01:49:38;;;;;;;8.43;7.63;;;;;;;19.25;49.35;97459.59;5013782;28;20195;-93
2022/12/02 01:52:04;;;;;;;8.13;7.33;;;;;;;20.17;49.41;97623.69;4995760;28;20206;-93
2022/12/02 01:54:31;;;;;;;8.23;7.20;;;;;;;19.91;49.69;97576.81;5016497;28;20213;-93
2022/12/02 01:56:58;;;;;;;7.80;7.10;;;;;;;19.72;49.42;97549.75;4993067;28;20211;-93
2022/12/02 01:59:24;;;;;;;8.20;7.33;;;;;;;19.29;49.47;97467.44;5014511;28;20198;-93
2022/12/02 02:01:51;;;;;;;8.63;7.73;;;;;;;19.74;49.49;97549.81;4986862;28;20219;-93
2022/12/02 02:04:17;;;;;;;8.40;7.50;;;;;;;19.52;49.29;97519.25;5001982;28;20187;-93
2022/12/02 02:06:45;;;;;;;8.00;7.20;;;;;;;19.24;49.16;97463.81;4996381;28;20210;-93
2022/12/02 02:09:12;;;;;;;8.77;7.87;;;;;;;19.92;49.45;97579.41;4995659;28;20183;-94
2022/12/02 02:11:39;;;;;;;7.80;7.00;;;;;;;19.79;49.46;97561.06;4997392;28;20262;-93
2022/12/02 02:14:07;;;;;;;8.27;7.47;;;;;;;19.65;49.19;97517.22;4996185;28;20193;-93
2022/12/02 02:16:34;;;;;;;8.07;7.27;;;;;;;19.74;49.32;97537.06;5007916;28;20191;-94
2022/12/02 02:19:01;;;;;;;8.27;7.47;;;;;;;19.51;49.45;97487.78;4996183;28;20209;-93
2022/12/02 02:21:31;;;;;;;8.70;7.80;;;;;;;19.76;49.49;97545.66;4994851;28;20271;-94
2022/12/02 02:23:58;;;;;;;8.17;7.37;;;;;;;19.23;49.44;97439.16;4996662;28;20195;-94
2022/12/02 02:26:25;;;;;;;8.37;7.47;;;;;;;19.91;49.19;97569.16;5011720;28;20214;-94
2022/12/02 02:28:51;;;;;;;7.87;7.07;;;;;;;20.65;49.59;97679.06;5013503;28;20251;-93
2022/12/02 02:31:18;;;;;;;8.60;7.70;;;;;;;20.11;49.39;97588.59;5012320;28;20203;-94
2022/12/02 02:33:44;;;;;;;7.93;7.13;;;;;;;19.08;49.41;97414.78;5007415;28;20247;-94
2022/12/02 02:36:11;;;;;;;8.47;7.43;;;;;;;19.29;49.33;97449.59;4997089;28;20175;-93
2022/12/02 02:38:38;;;;;;;8.33;7.40;;;;;;;19.54;49.61;97484.50;4988644;28;20188;-92
2022/12/02 02:41:05;;;;;;;8.07;7.27;;;;;;;19.42;49.52;97461.13;4981608;28;20210;-93
2022/12/02 02:43:31;;;;;;;8.60;7.53;;;;;;;19.11;49.30;97422.53;4995242;28;20194;-93
2022/12/02 02:45:58;;;;;;;7.50;6.63;;;;;;;19.43;49.30;97461.19;5013756;28;20247;-93
2022/12/02 02:48:24;;;;;;;9.27;7.60;;;;;;;19.25;49.61;97427.34;5011785;28;20190;-94
2022/12/02 02:50:51;;;;;;;8.33;7.33;;;;;;;19.29;49.23;97441.97;5006884;28;20210;-92
2022/12/02 02:53:19;;;;;;;8.80;7.90;;;;;;;20.21;49.39;97588.13;4987133;28;20195;-93
2022/12/02 02:55:46;;;;;;;8.13;7.33;;;;;;;20.10;49.62;97596.22;4987360;28;20184;-94
2022/12/02 02:58:12;;;;;;;7.90;7.17;;;;;;;20.64;49.36;97667.09;4983394;28;20187;-92
2022/12/02 03:00:44;;;;;;;7.80;7.00;;;;;;;19.65;49.50;97495.94;5008220;28;20219;-90
2022/12/02 03:03:11;;;;;;;8.57;7.57;;;;;;;19.24;49.68;97429.81;4971727;28;20202;-94
2022/12/02 03:05:38;;;;;;;8.50;7.60;;;;;;;19.65;49.41;97491.72;5009511;28;20219;-95
2022/12/02 03:08:05;;;;;;;7.73;7.03;;;;;;;19.57;49.26;97482.06;4969085;28;20190;-93
2022/12/02 03:10:31;;;;;;;8.33;7.23;;;;;;;19.35;49.55;97433.66;4995315;28;20204;-93
2022/12/02 03:12:58;;;;;;;8.17;7.40;;;;;;;19.16;49.34;97414.25;4992821;28;20188;-93
2022/12/02 03:15:25;;;;;;;9.47;8.47;;;;;;;19.22;49.33;97428.91;4998264;28;20181;-93
2022/12/02 03:17:51;;;;;;;8.60;7.50;;;;;;;19.61;49.39;97481.34;4993106;28;20184;-94
2022/12/02 03:20:18;;;;;;;8.93;8.03;;;;;;;19.56;49.31;97485.41;5000521;28;20206;-94
2022/12/02 03:22:45;;;;;;;9.30;8.40;;;;;;;19.79;49.40;97515.16;4974398;28;20623;-94
2022/12/02 03:25:11;;;;;;;8.40;7.60;;;;;;;20.62;49.30;97649.19;4993287;28;20251;-92
2022/12/02 03:27:38;;;;;;;9.00;8.17;;;;;;;20.14;49.30;97567.47;5009461;28;20184;-93
2022/12/02 03:30:06;;;;;;;8.77;7.97;;;;;;;19.70;49.38;97480.00;4968796;28;20206;-93
2022/12/02 03:32:32;;;;;;;8.50;7.60;;;;;;;20.13;49.33;97556.38;4996651;28;20210;-93
2022/12/02 03:34:59;;;;;;;8.37;7.53;;;;;;;19.23;49.41;97403.47;4983630;28;20203;-93
2022/12/02 03:37:26;;;;;;;9.50;8.27;;;;;;;19.71;49.47;97493.59;4999418;28;20218;-93
2022/12/02 03:39:52;;;;;;;9.00;8.07;;;;;;;20.06;49.38;97556.06;4999901;28;20207;-93
2022/12/02 03:42:19;;;;;;;9.40;8.40;;;;;;;19.42;49.54;97463.66;5009374;28;20254;-92
2022/12/02 03:44:46;;;;;;;9.00;8.10;;;;;;;18.85;49.36;97340.09;4990593;28;20191;-93
2022/12/02 03:47:13;;;;;;;7.77;6.97;;;;;;;20.11;49.38;97559.66;4988531;28;20192;-93
2022/12/02 03:49:39;;;;;;;8.43;7.63;;;;;;;19.64;49.16;97477.25;4993791;28;20203;-93
2022/12/02 03:52:06;;;;;;;8.07;7.33;;;;;;;19.81;49.28;97514.38;4982540;28;20183;-94
2022/12/02 03:54:33;;;;;;;8.53;7.73;;;;;;;20.21;49.27;97574.50;4977991;28;20190;-92
2022/12/02 03:56:59;;;;;;;9.47;8.53;;;;;;;19.62;49.46;97463.56;5011573;28;20187;-94
2022/12/02 03:59:29;;;;;;;10.33;8.87;;;;;;;19.90;49.29;97519.81;4994191;28;20214;-93
2022/12/02 04:01:56;;;;;;;8.90;8.00;;;;;;;19.25;49.62;97399.31;4997111;28;20215;-93
2022/12/02 04:04:22;;;;;;;9.70;8.70;;;;;;;19.66;49.48;97467.94;5005158;28;20250;-92
2022/12/02 04:06:49;;;;;;;10.00;8.47;;;;;;;20.14;49.49;97568.34;4996030;28;20215;-93
2022/12/02 04:09:15;;;;;;;9.33;8.43;;;;;;;19.45;49.41;97423.00;4991327;28;20207;-91
2022/12/02 04:11:42;;;;;;;9.57;8.67;;;;;;;19.25;49.33;97394.22;4995861;28;20222;-92
2022/12/02 04:14:09;;;;;;;9.67;8.67;;;;;;;19.98;49.36;97528.63;4994341;28;20183;-93
2022/12/02 04:16:35;;;;;;;9.57;8.47;;;;;;;20.18;49.30;97562.53;4994080;23;20306;-92
2022/12/02 04:19:02;;;;;;;9.60;8.67;;;;;;;19.96;49.57;97520.03;4994924;28;20286;-90
2022/12/02 04:21:29;;;;;;;9.17;8.27;;;;;;;19.25;49.25;97385.72;4986710;28;20212;-93
2022/12/02 04:23:55;;;;;;;9.50;8.50;;;;;;;20.61;49.50;97629.56;5008492;28;20235;-93
2022/12/02 04:26:22;;;;;;;9.70;8.67;;;;;;;20.17;49.49;97545.47;4986601;28;20200;-88
2022/12/02 04:28:48;;;;;;;9.17;8.23;;;;;;;20.14;49.54;97553.03;4992549;28;20271;-93
2022/12/02 04:31:15;;;;;;;10.97;8.47;;;;;;;19.33;49.46;97400.47;4989699;28;20283;-92
2022/12/02 04:33:42;;;;;;;9.10;8.20;;;;;;;19.88;49.21;97500.19;4984283;28;20193;-93
2022/12/02 04:36:08;;;;;;;9.40;8.40;;;;;;;19.89;49.41;97512.13;4993099;28;20207;-94
2022/12/02 04:38:35;;;;;;;9.40;8.33;;;;;;;18.64;49.51;97293.47;4989365;28;20232;-94
2022/12/02 04:41:02;;;;;;;9.03;8.10;;;;;;;19.37;48.96;97406.56;4981280;28;20227;-93
2022/12/02 04:43:29;;;;;;;9.37;8.43;;;;;;;20.38;49.21;97579.41;4957740;28;20200;-91
2022/12/02 04:45:55;;;;;;;10.03;8.53;;;;;;;20.00;49.32;97508.25;4997224;28;20199;-93
2022/12/02 04:48:22;;;;;;;9.60;8.60;;;;;;;20.37;49.28;97582.75;4992861;28;20243;-93
2022/12/02 04:50:48;;;;;;;9.70;8.70;;;;;;;20.40;49.04;97587.09;4973655;28;20231;-92
2022/12/02 04:53:15;;;;;;;9.00;8.10;;;;;;;19.99;49.44;97501.44;4990893;28;20791;-94
2022/12/02 04:55:45;;;;;;;10.37;9.03;;;;;;;19.93;49.48;97503.78;4990402;28;20192;-94
2022/12/02 04:58:12;;;;;;;9.30;8.40;;;;;;;19.86;49.43;97491.59;4998249;28;20207;-93
2022/12/02 05:00:38;;;;;;;9.43;8.43;;;;;;;20.36;49.26;97577.59;4995321;28;20203;-93
2022/12/02 05:03:05;;;;;;;10.10;8.67;;;;;;;19.99;49.31;97514.19;4975308;28;20227;-91
2022/12/02 05:05:32;;;;;;;9.67;8.67;;;;;;;20.62;49.39;97618.53;4996727;28;20183;-93
2022/12/02 05:07:58;;;;;;;10.43;9.40;;;;;;;20.50;49.54;97590.03;4991279;28;20210;-92
2022/12/02 05:10:26;;;;;;;9.67;8.63;;;;;;;20.34;49.36;97582.63;4995459;28;20200;-93
2022/12/02 05:12:52;;;;;;;10.23;9.13;;;;;;;20.29;49.49;97553.56;4990709;28;20208;-94
2022/12/02 05:15:19;;;;;;;9.40;8.40;;;;;;;20.37;49.59;97562.31;4998327;28;20195;-93
2022/12/02 05:17:46;;;;;;;10.33;9.23;;;;;;;20.42;49.36;97573.56;4971918;28;20209;-88
2022/12/02 05:20:13;;;;;;;9.77;8.77;;;;;;;20.22;49.54;97535.44;4990704;28;20207;-93
2022/12/02 05:22:39;;;;;;;9.20;8.20;;;;;;;20.01;49.42;97494.69;4991367;28;20234;-93
2022/12/02 05:25:06;;;;;;;10.57;9.47;;;;;;;19.76;49.43;97462.38;4976071;28;20215;-93
2022/12/02 05:27:33;;;;;;;11.23;9.47;;;;;;;20.42;48.95;97565.91;4976823;28;20232;-92
2022/12/02 05:30:02;;;;;;;10.33;9.23;;;;;;;19.85;49.33;97472.91;4990857;28;20209;-92
2022/12/02 05:32:29;;;;;;;10.07;9.07;;;;;;;20.46;49.17;97577.13;4996711;28;20195;-92
2022/12/02 05:34:56;;;;;;;10.33;9.23;;;;;;;20.01;49.35;97498.94;4991138;28;20196;-91
2022/12/02 05:37:22;;;;;;;10.57;9.47;;;;;;;19.90;49.13;97475.63;4990465;28;20202;-94
2022/12/02 05:39:49;;;;;;;10.27;9.03;;;;;;;19.44;49.18;97411.94;4991608;28;20208;-93
2022/12/02 05:42:15;;;;;;;10.47;9.30;;;;;;;20.22;49.33;97536.28;4990826;28;20231;-90
2022/12/02 05:44:42;;;;;;;10.50;9.30;;;;;;;20.27;49.36;97551.75;4992964;28;20196;-94
2022/12/02 05:47:16;;;;;;;11.23;10.03;;;;;;;20.20;49.35;97545.59;4992360;28;20288;-95
2022/12/02 05:49:44;;;;;;;11.47;9.90;;;;;;;19.75;49.35;97457.22;4969755;28;20448;-92
2022/12/02 05:52:26;;;;;;;11.43;10.13;;;;;;;20.64;49.22;97598.16;4982623;28;20184;-92
2022/12/02 05:54:57;;;;;;;10.60;9.40;;;;;;;19.85;49.35;97472.03;4992699;28;20203;-91
2022/12/02 05:57:26;;;;;;;11.40;9.97;;;;;;;20.04;49.24;97520.31;4975441;28;20210;-90
2022/12/02 06:00:17;;;;;;;10.90;9.33;;;;;;;20.64;49.32;97601.59;4993845;28;20211;-94
2022/12/02 06:02:49;;;;;;;11.87;9.53;;;;;;;20.32;49.08;97561.31;4979643;28;20328;-90
2022/12/02 06:05:22;;;;;;;10.20;9.10;;;;;;;20.09;49.15;97511.13;4978194;28;20199;-90
2022/12/02 06:07:52;;;;;;;10.77;9.63;;;;;;;20.40;49.37;97571.78;4972226;28;20231;-90
2022/12/02 06:10:25;;;;;;;10.30;9.17;;;;;;;20.03;49.16;97505.81;4979354;28;20223;-88
2022/12/02 06:12:53;;;;;;;11.67;9.53;;;;;;;20.01;49.21;97496.38;4972914;28;20295;-91
2022/12/02 06:15:19;;;;;;;11.20;9.37;;;;;;;20.56;49.10;97600.44;4980783;28;20701;-90
2022/12/02 06:17:46;;;;;;;10.93;9.30;;;;;;;20.46;49.46;97582.22;4971340;28;20240;-91
2022/12/02 06:20:27;;;;;;;11.47;10.07;;;;;;;19.79;49.27;97456.50;4972902;28;20254;-91
2022/12/02 06:22:53;;;;;;;12.20;10.17;;;;;;;20.01;49.15;97494.69;4968984;28;20235;-91
2022/12/02 06:25:26;;;;;;;11.30;9.73;;;;;;;20.46;49.33;97580.50;4975595;28;20208;-90
2022/12/02 06:27:54;;;;;;;10.90;9.80;;;;;;;20.10;49.30;97512.00;4975754;28;20272;-90
2022/12/02 06:30:25;;;;;;;11.63;10.43;;;;;;;20.56;49.13;97595.34;4965064;28;20246;-91
2022/12/02 06:32:53;;;;;;;11.53;10.00;;;;;;;20.32;49.32;97557.91;4974196;28;20478;-90
2022/12/02 06:35:30;;;;;;;11.70;10.50;;;;;;;20.64;49.16;97604.16;4973370;28;20204;-90
2022/12/02 06:38:00;;;;;;;11.07;9.27;;;;;;;20.32;49.31;97551.13;4974693;28;20200;-90
2022/12/02 06:40:31;;;;;;;10.57;9.47;;;;;;;20.29;49.12;97552.69;4974982;28;20283;-91
2022/12/02 06:42:58;;;;;;;12.63;11.07;;;;;;;20.07;49.27;97506.81;4978337;28;20216;-90
2022/12/02 06:45:30;;;;;;;11.90;10.03;;;;;;;19.83;49.00;97473.63;4975487;28;20218;-90
2022/12/02 06:48:00;;;;;;;11.77;10.10;;;;;;;20.61;49.14;97603.16;4986821;28;20284;-91
2022/12/02 06:50:30;;;;;;;12.13;10.60;;;;;;;19.91;49.08;97493.53;4993407;28;20223;-90
2022/12/02 06:53:17;;;;;;;12.67;9.90;;;;;;;20.64;48.99;97601.59;4973560;28;20200;-92
2022/12/02 06:55:43;;;;;;;12.20;10.17;;;;;;;20.32;49.16;97553.66;4993016;28;20207;-90
2022/12/02 06:58:29;;;;;;;12.53;10.90;;;;;;;20.65;49.11;97605.88;4987247;28;20208;-90
2022/12/02 07:01:17;;;;;;;11.30;9.77;;;;;;;20.66;48.85;97604.19;4994324;28;20259;-90
2022/12/02 07:03:47;;;;;;;11.93;10.20;;;;;;;20.01;48.98;97493.84;4986436;28;20228;-91
2022/12/02 07:06:17;;;;;;;10.57;9.43;;;;;;;20.66;49.29;97614.41;4978638;28;20234;-92
2022/12/02 07:08:44;;;;;;;11.07;9.70;;;;;;;20.32;49.34;97553.66;4987528;28;20247;-91
2022/12/02 07:11:48;;;;;;;11.47;10.07;;;;;;;20.32;49.06;97555.34;4979336;28;20250;-90
2022/12/02 07:14:44;;;;;;;12.50;10.50;;;;;;;20.57;49.21;97609.00;4975007;28;20334;-90
2022/12/02 07:17:29;;;;;;;11.77;10.37;;;;;;;20.65;49.30;97616.09;4962972;28;20234;-90
2022/12/02 07:20:12;;;;;;;11.80;10.60;;;;;;;20.25;49.15;97551.69;4991211;28;20231;-91
2022/12/02 07:22:42;;;;;;;10.83;9.70;;;;;;;19.71;49.08;97453.69;4980195;28;20234;-92
2022/12/02 07:25:09;;;;;;;12.40;10.63;;;;;;;20.65;49.07;97613.53;4967079;28;20700;-90
2022/12/02 07:27:39;;;;;;;11.90;10.43;;;;;;;20.19;48.75;97528.53;4979510;28;20230;-91
2022/12/02 07:30:22;;;;;;;12.00;10.57;;;;;;;20.65;49.25;97613.53;4971933;28;20215;-90
2022/12/02 07:32:49;;;;;;;11.47;10.27;;;;;;;19.92;49.30;97491.81;4971276;28;20211;-91
2022/12/02 07:35:16;;;;;;;11.83;10.27;;;;;;;20.39;49.02;97570.91;4978123;28;20651;-90
2022/12/02 07:37:42;;;;;;;11.60;10.40;;;;;;;20.07;48.77;97506.81;4960259;28;20291;-90
2022/12/02 07:40:10;;;;;;;12.30;11.00;;;;;;;20.29;49.16;97550.13;4995727;28;20223;-90
2022/12/02 07:42:37;;;;;;;12.63;10.23;;;;;;;20.08;49.06;97522.16;4973683;28;20223;-90
2022/12/02 07:45:04;;;;;;;12.37;10.13;;;;;;;19.83;49.07;97471.97;4964049;28;20231;-91
2022/12/02 07:47:31;;;;;;;13.23;11.07;;;;;;;20.11;49.21;97519.72;4975205;28;20200;-92
2022/12/02 07:49:57;;;;;;;12.27;10.67;;;;;;;20.20;48.86;97539.59;4977882;28;20282;-92
2022/12/02 07:52:24;;;;;;;12.97;10.57;;;;;;;19.82;48.91;97471.91;4970268;28;20468;-89
2022/12/02 07:54:50;;;;;;;12.77;11.27;;;;;;;20.45;48.92;97575.34;4977732;28;20200;-92
2022/12/02 07:57:17;;;;;;;10.93;9.83;;;;;;;20.18;49.08;97536.13;4979110;28;20231;-91
2022/12/02 07:59:44;;;;;;;12.27;10.73;;;;;;;20.14;49.30;97521.53;4971717;28;20287;-89
2022/12/02 08:02:10;;;;;;;11.87;10.47;;;;;;;20.11;48.72;97516.28;4956310;28;20685;-88
2022/12/02 08:04:37;;;;;;;12.73;10.70;;;;;;;20.30;48.88;97552.72;4973384;28;20200;-90
2022/12/02 08:07:03;;;;;;;13.50;11.10;;;;;;;20.25;48.75;97541.50;4972553;28;20207;-91
2022/12/02 08:09:30;;;;;;;13.13;10.93;;;;;;;19.98;48.70;97499.69;4976239;28;20314;-91
2022/12/02 08:11:57;;;;;;;12.93;11.07;;;;;;;20.09;48.72;97515.34;4961918;28;20734;-90
2022/12/02 08:14:23;;;;;;;12.77;11.03;;;;;;;20.15;49.18;97529.25;4980178;28;20214;-90
2022/12/02 08:16:50;;;;;;;11.70;10.50;;;;;;;20.23;49.08;97532.06;4980487;28;20208;-90
2022/12/02 08:19:16;;;;;;;11.67;10.27;;;;;;;20.11;49.45;97526.50;4972424;28;20307;-91
2022/12/02 08:21:43;;;;;;;12.20;10.90;;;;;;;20.50;48.90;97589.16;4959366;28;20681;-90
2022/12/02 08:24:10;;;;;;;12.77;10.63;;;;;;;20.49;49.02;97582.31;4973585;28;20255;-90
2022/12/02 08:26:36;;;;;;;11.53;10.30;;;;;;;20.51;49.18;97595.97;4978477;28;20231;-90
2022/12/02 08:29:03;;;;;;;11.23;9.97;;;;;;;20.27;49.08;97544.97;4965386;28;20211;-91
2022/12/02 08:31:29;;;;;;;14.33;11.27;;;;;;;20.43;48.99;97579.56;4976420;28;20290;-90
2022/12/02 08:33:56;;;;;;;14.07;11.00;;;;;;;20.09;49.00;97512.81;4979332;28;20639;-91
2022/12/02 08:36:27;;;;;;;12.27;10.87;;;;;;;20.41;48.79;97576.94;4992471;28;20207;-90
2022/12/02 08:38:54;;;;;;;12.23;10.80;;;;;;;20.20;48.88;97539.59;4972264;28;20235;-90
2022/12/02 08:41:21;;;;;;;12.27;10.43;;;;;;;20.16;48.93;97523.31;4993892;28;20230;-90
2022/12/02 08:43:47;;;;;;;11.97;10.47;;;;;;;20.36;48.98;97554.63;4974792;28;20223;-90
2022/12/02 08:46:14;;;;;;;11.83;10.37;;;;;;;20.01;48.75;97498.94;4979232;28;20286;-90
2022/12/02 08:48:40;;;;;;;12.83;11.20;;;;;;;20.48;49.07;97581.44;4975870;28;20748;-92
2022/12/02 08:51:07;;;;;;;13.07;11.53;;;;;;;20.31;48.83;97553.63;4976973;28;20693;-90
2022/12/02 08:53:34;;;;;;;12.07;10.57;;;;;;;20.27;49.01;97539.00;4972961;28;20729;-90
2022/12/02 08:56:00;;;;;;;12.50;10.63;;;;;;;20.22;48.94;97528.63;4974086;28;20287;-91
2022/12/02 08:58:27;;;;;;;12.67;10.93;;;;;;;19.97;48.78;97487.75;4978351;28;20254;-90
2022/12/02 09:00:53;;;;;;;14.53;12.00;;;;;;;20.38;48.67;97556.44;4975625;28;20258;-91
2022/12/02 09:03:20;;;;;;;12.13;10.67;;;;;;;20.24;49.01;97557.63;4979387;28;20219;-90
2022/12/02 09:05:46;;;;;;;14.23;11.40;;;;;;;19.95;48.70;97487.69;4976581;28;20211;-90
2022/12/02 09:08:13;;;;;;;12.33;10.93;;;;;;;20.38;48.62;97563.22;4972994;28;20725;-90
2022/12/02 09:10:40;;;;;;;13.47;11.53;;;;;;;19.96;48.62;97486.03;4977095;28;20235;-90
2022/12/02 09:13:06;;;;;;;13.83;11.90;;;;;;;19.81;48.79;97460.84;4971892;28;20204;-90
2022/12/02 09:15:33;;;;;;;13.03;10.70;;;;;;;19.95;49.09;97487.69;4977811;28;20222;-89
2022/12/02 09:17:59;;;;;;;13.83;11.67;;;;;;;19.87;48.65;97480.59;4974810;28;20224;-92
2022/12/02 09:20:26;;;;;;;12.47;10.97;;;;;;;20.27;49.27;97552.63;4978779;28;20230;-91
2022/12/02 09:22:53;;;;;;;12.33;10.93;;;;;;;20.23;48.96;97542.25;4975629;28;20231;-91
2022/12/02 09:25:19;;;;;;;14.00;11.20;;;;;;;20.29;49.13;97547.56;4981475;28;20243;-90
2022/12/02 09:27:46;;;;;;;12.17;10.73;;;;;;;20.34;48.76;97554.56;4977577;28;20212;-90
2022/12/02 09:30:13;;;;;;;12.87;11.27;;;;;;;20.11;49.00;97508.63;4959661;28;20215;-92
2022/12/02 09:32:39;;;;;;;12.13;10.70;;;;;;;20.30;48.93;97539.09;4979106;28;20292;-90
2022/12/02 09:35:06;;;;;;;13.40;11.00;;;;;;;20.37;48.93;97554.66;4973414;28;20204;-90
2022/12/02 09:37:33;;;;;;;14.23;11.23;;;;;;;20.24;48.96;97533.78;4965501;28;20701;-91
2022/12/02 09:40:00;;;;;;;13.23;11.20;;;;;;;20.06;48.52;97499.94;4960111;28;20248;-91
2022/12/02 09:42:26;;;;;;;13.23;11.03;;;;;;;20.10;48.87;97506.91;4976093;28;20643;-90
2022/12/02 09:44:53;;;;;;;12.87;11.43;;;;;;;20.44;48.90;97565.97;4978167;28;20218;-91
2022/12/02 09:47:21;;;;;;;14.03;11.77;;;;;;;20.13;48.76;97510.44;4959300;28;20259;-91
2022/12/02 09:49:47;;;;;;;15.23;12.17;;;;;;;20.12;48.44;97500.16;4978473;28;20239;-91
2022/12/02 09:52:19;;;;;;;13.93;11.40;;;;;;;19.78;48.82;97434.38;4966900;28;20211;-92
2022/12/02 09:54:52;;;;;;;13.87;11.67;;;;;;;20.48;48.86;97561.03;4965912;28;20200;-90
2022/12/02 09:57:19;;;;;;;13.27;11.83;;;;;;;20.58;48.79;97580.97;4973453;28;20200;-90
2022/12/02 09:59:46;;;;;;;13.43;11.10;;;;;;;20.54;48.89;97571.44;4977202;28;20207;-91
2022/12/02 10:02:24;;;;;;;14.93;11.97;;;;;;;19.84;48.81;97447.34;4975738;28;20263;-91
2022/12/02 10:04:51;;;;;;;13.37;11.03;;;;;;;20.21;48.66;97519.25;4965508;28;20222;-91
2022/12/02 10:07:18;;;;;;;15.50;12.37;;;;;;;20.40;48.58;97547.13;4977095;28;20195;-90
2022/12/02 10:09:44;;;;;;;15.10;12.03;;;;;;;20.08;48.80;97491.56;4977413;28;20291;-90
2022/12/02 10:12:11;;;;;;;12.90;11.43;;;;;;;19.86;48.74;97449.13;4978891;28;20202;-91
2022/12/02 10:14:37;;;;;;;14.43;11.90;;;;;;;20.06;48.63;97482.97;4970975;28;20200;-90
2022/12/02 10:17:17;;;;;;;14.20;11.67;;;;;;;20.41;48.62;97538.66;4964260;28;20207;-90
2022/12/02 10:19:44;;;;;;;13.80;11.43;;;;;;;19.23;48.44;97337.25;4976754;28;20192;-91
2022/12/02 10:22:15;;;;;;;12.90;11.50;;;;;;;19.18;48.63;97326.03;4995492;28;20247;-91
2022/12/02 10:24:42;;;;;;;13.63;11.53;;;;;;;19.90;48.83;97437.34;4991069;28;20212;-91
2022/12/02 10:27:09;;;;;;;14.83;12.07;;;;;;;20.17;48.95;97484.25;4987565;28;20187;-91
2022/12/02 10:29:35;;;;;;;13.33;11.13;;;;;;;20.22;48.64;97495.44;5004001;28;20211;-92
2022/12/02 10:32:21;;;;;;;14.50;11.30;;;;;;;19.30;48.84;97335.81;4995467;28;20230;-91
2022/12/02 10:35:11;;;;;;;12.77;10.77;;;;;;;20.64;48.75;97565.84;4992871;28;20211;-90
2022/12/02 10:37:37;;;;;;;12.90;11.17;;;;;;;19.91;49.17;97431.44;5006783;28;20207;-91
2022/12/02 10:40:15;;;;;;;13.43;11.07;;;;;;;20.40;49.08;97530.94;4991450;28;20218;-91
2022/12/02 10:42:42;;;;;;;12.17;10.47;;;;;;;20.15;48.85;97474.78;4998083;28;20214;-92
2022/12/02 10:45:20;;;;;;;12.90;10.80;;;;;;;20.01;48.80;97469.19;4988898;28;20184;-91
2022/12/02 10:47:47;;;;;;;13.90;11.40;;;;;;;19.76;48.52;97397.75;4997937;28;20234;-91
2022/12/02 10:50:19;;;;;;;12.73;11.17;;;;;;;19.33;48.89;97330.84;4993518;28;20208;-92
2022/12/02 10:52:50;;;;;;;13.60;11.50;;;;;;;20.23;48.60;97486.13;4996160;28;20385;-92
2022/12/02 10:55:17;;;;;;;12.47;11.17;;;;;;;19.25;48.79;97315.25;4995377;28;20188;-91
2022/12/02 10:57:44;;;;;;;12.60;11.03;;;;;;;20.14;48.72;97462.84;4988022;28;20196;-91
2022/12/02 11:00:17;;;;;;;13.33;11.30;;;;;;;20.55;48.62;97528.91;4996708;28;20203;-92
2022/12/02 11:02:54;;;;;;;12.63;10.97;;;;;;;20.38;48.57;97501.94;4988264;28;20240;-91
2022/12/02 11:05:23;;;;;;;12.73;11.07;;;;;;;20.65;48.68;97536.94;4997317;28;20199;-92
2022/12/02 11:08:23;;;;;;;13.90;11.80;;;;;;;20.20;48.62;97461.38;4986951;28;20208;-91
2022/12/02 11:11:04;;;;;;;13.27;11.20;;;;;;;20.65;48.66;97534.38;5000290;28;20620;-91
2022/12/02 11:13:48;;;;;;;13.30;11.50;;;;;;;20.66;48.56;97537.81;4992515;28;20251;-91
2022/12/02 11:16:35;;;;;;;13.43;11.50;;;;;;;19.66;48.54;97363.41;4988473;28;20219;-91
2022/12/02 11:19:21;;;;;;;13.70;11.60;;;;;;;20.06;48.58;97431.06;4986353;28;20184;-91
2022/12/02 11:21:48;;;;;;;13.77;11.67;;;;;;;19.65;48.56;97373.56;4994715;28;20223;-91
2022/12/02 11:24:21;;;;;;;12.40;10.57;;;;;;;20.65;48.44;97528.38;4992162;28;20291;-92
2022/12/02 11:27:00;;;;;;;12.77;11.27;;;;;;;20.64;48.72;97519.88;4998731;28;20207;-92
2022/12/02 11:29:34;;;;;;;13.67;11.23;;;;;;;20.63;48.71;97519.84;5006723;28;20205;-92
2022/12/02 11:32:22;;;;;;;11.70;10.47;;;;;;;20.66;48.79;97522.47;4994003;28;20200;-92
2022/12/02 11:34:50;;;;;;;13.63;11.23;;;;;;;19.78;48.62;97368.09;4991282;28;20196;-91